createdAt,value
2022-12-09T00:00:21.242Z,27.87
2022-12-09T00:04:24.910Z,40.37
2022-12-09T00:08:27.218Z,32.97
2022-12-09T00:12:29.368Z,39.53
2022-12-09T00:16:31.291Z,52.40
2022-12-09T00:20:36.408Z,59.07
2022-12-09T00:25:08.286Z,52.83
2022-12-09T00:29:11.356Z,37.47
2022-12-09T00:33:41.359Z,37.60
2022-12-09T00:38:00.745Z,42.53
2022-12-09T00:42:03.165Z,34.80
2022-12-09T00:46:07.738Z,92.87
2022-12-09T00:50:11.481Z,92.03
2022-12-09T00:54:25.873Z,123.47
2022-12-09T00:58:27.771Z,155.73
2022-12-09T01:02:30.011Z,271.73
2022-12-09T01:06:32.285Z,278.27
2022-12-09T01:11:27.284Z,251.27
2022-12-09T01:15:29.659Z,242.33
2022-12-09T01:19:45.697Z,264.07
2022-12-09T01:23:49.423Z,276.00
2022-12-09T01:27:58.699Z,333.57
2022-12-09T01:32:26.064Z,296.20
2022-12-09T01:36:29.871Z,306.50
2022-12-09T01:40:32.022Z,470.17
2022-12-09T01:45:20.638Z,384.07
2022-12-09T01:49:52.526Z,473.00
2022-12-09T01:53:54.682Z,429.30
2022-12-09T01:57:57.166Z,444.03
2022-12-09T02:02:05.113Z,478.27
2022-12-09T02:06:56.833Z,448.37
2022-12-09T02:11:40.088Z,427.47
2022-12-09T02:15:42.353Z,443.70
2022-12-09T02:20:07.203Z,508.20
2022-12-09T02:24:22.225Z,419.13
2022-12-09T02:29:03.170Z,465.30
2022-12-09T02:33:47.473Z,208.60
2022-12-09T02:38:11.717Z,68.43
2022-12-09T02:43:18.969Z,61.70
2022-12-09T02:47:32.095Z,55.97
2022-12-09T02:51:42.430Z,46.53
2022-12-09T02:55:49.728Z,43.27
2022-12-09T02:59:52.561Z,42.00
2022-12-09T03:03:55.989Z,46.70
2022-12-09T03:08:28.365Z,33.70
2022-12-09T03:12:34.226Z,32.93
2022-12-09T03:17:21.867Z,30.07
2022-12-09T03:21:26.379Z,38.13
2022-12-09T03:25:32.302Z,31.33
2022-12-09T03:29:46.801Z,31.80
2022-12-09T03:33:53.767Z,35.83
2022-12-09T03:37:59.314Z,33.07
2022-12-09T03:42:05.937Z,27.90
2022-12-09T03:46:15.261Z,27.20
2022-12-09T03:51:05.638Z,22.57
2022-12-09T03:55:19.872Z,25.83
2022-12-09T03:59:23.900Z,23.00
2022-12-09T04:03:28.546Z,20.77
2022-12-09T04:07:30.941Z,24.17
2022-12-09T04:11:34.390Z,22.60
2022-12-09T04:16:06.603Z,25.13
2022-12-09T04:20:09.518Z,27.63
2022-12-09T04:24:11.990Z,27.77
2022-12-09T04:28:13.929Z,23.93
2022-12-09T04:32:18.503Z,27.87
2022-12-09T04:36:21.324Z,33.77
2022-12-09T04:40:28.354Z,23.83
2022-12-09T04:44:30.223Z,29.63
2022-12-09T04:48:58.298Z,29.50
2022-12-09T04:53:03.797Z,28.43
2022-12-09T04:58:20.985Z,29.03
2022-12-09T05:02:26.016Z,31.23
2022-12-09T05:07:31.544Z,28.37
2022-12-09T05:11:34.511Z,31.27
2022-12-09T05:15:47.970Z,28.23
2022-12-09T05:19:53.214Z,33.50
2022-12-09T05:23:55.291Z,33.70
2022-12-09T05:27:57.386Z,34.73
2022-12-09T05:31:59.598Z,40.07
2022-12-09T05:36:09.954Z,35.23
2022-12-09T05:40:12.468Z,40.60
2022-12-09T05:44:15.260Z,35.60
2022-12-09T05:48:17.228Z,40.00
2022-12-09T05:52:19.503Z,36.53
2022-12-09T05:56:24.380Z,36.17
2022-12-09T06:00:32.465Z,36.33
2022-12-09T06:04:38.510Z,40.57
2022-12-09T06:08:41.935Z,47.43
2022-12-09T06:12:44.216Z,42.20
2022-12-09T06:16:46.689Z,51.47
2022-12-09T06:20:48.645Z,49.93
2022-12-09T06:24:56.804Z,122.87
2022-12-09T06:28:59.946Z,97.37
2022-12-09T06:33:02.303Z,249.50
2022-12-09T06:37:05.181Z,65.03
2022-12-09T06:41:12.389Z,50.33
2022-12-09T06:45:14.638Z,78.97
2022-12-09T06:49:27.359Z,48.37
2022-12-09T06:53:29.980Z,52.17
2022-12-09T06:57:32.310Z,44.70
2022-12-09T07:02:54.435Z,45.30
2022-12-09T07:06:56.701Z,38.50
2022-12-09T07:11:02.904Z,38.90
2022-12-09T07:15:07.391Z,39.77
2022-12-09T07:19:18.209Z,40.90
2022-12-09T07:23:22.633Z,42.00
2022-12-09T07:27:35.591Z,36.10
2022-12-09T07:32:11.683Z,43.53
2022-12-09T07:36:20.509Z,45.60
2022-12-09T07:40:23.431Z,31.07
2022-12-09T07:44:28.283Z,28.40
2022-12-09T07:48:30.752Z,32.87
2022-12-09T07:52:33.699Z,39.00
2022-12-09T07:56:35.755Z,28.63
2022-12-09T08:00:39.817Z,34.93
2022-12-09T08:04:42.270Z,36.87
2022-12-09T08:08:45.386Z,28.03
2022-12-09T08:12:48.113Z,33.13
2022-12-09T08:17:09.075Z,30.27
2022-12-09T08:21:17.560Z,32.83
2022-12-09T08:25:19.933Z,35.60
2022-12-09T08:29:22.342Z,40.00
2022-12-09T08:33:25.350Z,29.67
2022-12-09T08:37:27.894Z,31.80
2022-12-09T08:41:37.442Z,34.37
2022-12-09T08:45:41.786Z,39.10
2022-12-09T08:49:43.832Z,39.20
2022-12-09T08:53:46.897Z,42.47
2022-12-09T08:57:49.512Z,40.83
2022-12-09T09:01:51.774Z,57.13
2022-12-09T09:05:54.265Z,35.90
2022-12-09T09:09:56.528Z,59.47
2022-12-09T09:13:59.434Z,68.77
2022-12-09T09:18:01.491Z,140.80
2022-12-09T09:22:04.949Z,156.70
2022-12-09T09:26:43.379Z,460.27
2022-12-09T09:30:47.279Z,38.10
2022-12-09T09:34:50.791Z,44.10
2022-12-09T09:38:55.075Z,38.57
2022-12-09T09:42:58.696Z,43.00
2022-12-09T09:47:13.962Z,206.67
2022-12-09T09:51:19.372Z,54.67
2022-12-09T09:55:46.751Z,29.60
2022-12-09T10:00:20.557Z,58.20
2022-12-09T10:05:12.148Z,232.87
2022-12-09T10:09:33.483Z,452.87
2022-12-09T10:14:35.165Z,391.37
2022-12-09T10:19:16.409Z,687.67
2022-12-09T10:23:35.166Z,472.27
2022-12-09T10:28:17.434Z,521.90
2022-12-09T10:32:25.968Z,650.50
2022-12-09T10:36:46.239Z,573.10
2022-12-09T10:40:50.023Z,553.07
2022-12-09T10:45:08.617Z,682.77
2022-12-09T10:49:19.172Z,587.13
2022-12-09T10:53:24.082Z,567.10
2022-12-09T10:57:28.949Z,528.23
2022-12-09T11:01:59.701Z,596.80
2022-12-09T11:06:31.402Z,730.17
2022-12-09T11:10:50.531Z,604.40
2022-12-09T11:14:59.854Z,562.20
2022-12-09T11:19:03.384Z,656.80
2022-12-09T11:23:17.152Z,500.27
2022-12-09T11:27:33.271Z,561.60
2022-12-09T11:31:41.987Z,446.03
2022-12-09T11:35:44.207Z,429.53
2022-12-09T11:39:52.661Z,324.83
2022-12-09T11:44:35.018Z,305.87
2022-12-09T11:48:43.240Z,517.60
2022-12-09T11:53:08.181Z,462.77
2022-12-09T11:57:23.419Z,608.33
2022-12-09T12:07:20.546Z,448.07
2022-12-09T12:11:32.349Z,442.17
2022-12-09T12:16:40.117Z,318.67
2022-12-09T12:20:53.298Z,378.30
2022-12-09T12:25:20.975Z,452.67
2022-12-09T12:29:47.514Z,426.27
2022-12-09T12:34:25.293Z,444.70
2022-12-09T12:39:07.513Z,401.50
2022-12-09T12:44:09.714Z,529.17
2022-12-09T12:48:24.924Z,433.47
2022-12-09T12:53:11.688Z,482.73
2022-12-09T12:57:19.253Z,575.63
2022-12-09T13:01:31.905Z,509.80
2022-12-09T13:05:50.950Z,396.83
2022-12-09T13:14:26.164Z,423.00
2022-12-09T13:19:07.186Z,353.73
2022-12-09T13:23:46.512Z,474.53
2022-12-09T13:28:00.190Z,403.77
2022-12-09T13:32:42.713Z,412.10
2022-12-09T13:37:41.735Z,329.37
2022-12-09T13:42:06.856Z,295.00
2022-12-09T13:46:22.289Z,261.50
2022-12-09T13:50:40.755Z,233.40
2022-12-09T13:54:49.869Z,90.23
2022-12-09T13:59:19.787Z,112.13
2022-12-09T14:03:32.850Z,88.33
2022-12-09T14:07:46.746Z,53.27
2022-12-09T14:11:52.276Z,44.33
2022-12-09T14:16:29.426Z,38.93
2022-12-09T14:20:39.782Z,17.80
2022-12-09T14:24:42.322Z,22.90
2022-12-09T14:29:11.008Z,11.30
2022-12-09T14:33:33.796Z,11.93
2022-12-09T14:37:41.674Z,13.43
2022-12-09T14:42:30.120Z,4.03
2022-12-09T14:47:32.382Z,21.93
2022-12-09T14:51:46.775Z,10.50
2022-12-09T14:55:50.635Z,8.57
2022-12-09T14:59:55.800Z,24.13
2022-12-09T15:03:59.858Z,19.57
2022-12-09T15:08:02.286Z,19.53
2022-12-09T15:12:10.641Z,23.83
2022-12-09T15:16:16.154Z,39.17
2022-12-09T15:20:23.013Z,40.13
2022-12-09T15:24:51.249Z,20.90
2022-12-09T15:28:56.267Z,12.13
2022-12-09T15:32:58.418Z,16.33
2022-12-09T15:37:06.377Z,87.37
2022-12-09T15:41:33.541Z,88.07
2022-12-09T15:45:43.629Z,97.67
2022-12-09T15:50:41.783Z,108.37
2022-12-09T15:54:57.112Z,9.40
2022-12-09T15:59:05.352Z,7.33
2022-12-09T16:03:29.592Z,120.87
2022-12-09T16:07:32.976Z,26.50
2022-12-09T16:11:55.684Z,2.83
2022-12-09T16:16:03.757Z,4.17
2022-12-09T16:20:33.114Z,2.40
2022-12-09T16:29:34.461Z,37.60
2022-12-09T16:33:39.549Z,16.30
2022-12-09T16:38:09.624Z,18.00
2022-12-09T16:42:37.924Z,42.70
2022-12-09T16:46:42.874Z,29.73
2022-12-09T16:51:00.520Z,79.60
2022-12-09T16:55:02.636Z,563.87
2022-12-09T16:59:04.985Z,310.17
2022-12-09T17:03:18.692Z,262.73
2022-12-09T17:07:35.560Z,279.30
2022-12-09T17:12:04.614Z,550.77
2022-12-09T17:16:37.596Z,537.13
2022-12-09T17:21:08.629Z,444.77
2022-12-09T17:25:10.923Z,291.30
2022-12-09T17:29:13.754Z,443.47
2022-12-09T17:33:15.742Z,282.33
2022-12-09T17:37:17.659Z,240.83
2022-12-09T17:41:24.126Z,351.43
2022-12-09T17:45:27.052Z,561.87
2022-12-09T17:49:29.564Z,324.17
2022-12-09T17:53:32.024Z,507.77
2022-12-09T17:57:34.103Z,274.47
2022-12-09T18:01:37.441Z,375.63
2022-12-09T18:05:44.004Z,496.17
2022-12-09T18:10:02.486Z,588.10
2022-12-09T18:14:06.859Z,339.40
2022-12-09T18:18:12.417Z,312.87
2022-12-09T18:22:15.075Z,561.70
2022-12-09T18:26:19.419Z,490.03
2022-12-09T18:30:21.968Z,480.47
2022-12-09T18:34:28.815Z,595.43
2022-12-09T18:38:30.834Z,521.07
2022-12-09T18:42:42.014Z,401.53
2022-12-09T18:46:47.150Z,464.17
2022-12-09T18:50:51.644Z,440.70
2022-12-09T18:54:55.186Z,393.60
2022-12-09T18:59:06.433Z,433.67
2022-12-09T19:03:15.830Z,149.43
2022-12-09T19:07:17.866Z,17.57
2022-12-09T19:11:30.683Z,339.97
2022-12-09T19:15:34.340Z,53.27
2022-12-09T19:19:38.304Z,75.47
2022-12-09T19:23:47.093Z,134.17
2022-12-09T19:27:58.699Z,227.87
2022-12-09T19:32:05.575Z,38.40
2022-12-09T19:36:30.142Z,13.93
2022-12-09T19:40:32.060Z,6.87
2022-12-09T19:45:00.081Z,6.97
2022-12-09T19:49:24.032Z,4.73
2022-12-09T19:53:44.784Z,5.50
2022-12-09T19:57:46.775Z,3.13
2022-12-09T20:01:48.936Z,2.27
2022-12-09T20:05:53.131Z,3.07
2022-12-09T20:10:03.561Z,2.20
2022-12-09T20:14:31.087Z,3.17
2022-12-09T20:18:39.270Z,2.47
2022-12-09T20:22:43.273Z,3.83
2022-12-09T20:26:45.533Z,4.07
2022-12-09T20:30:47.447Z,3.47
2022-12-09T20:34:51.438Z,12.50
2022-12-09T20:38:57.113Z,2.70
2022-12-09T20:42:59.322Z,2.40
2022-12-09T20:47:01.265Z,2.30
2022-12-09T20:51:05.660Z,2.73
2022-12-09T20:55:08.092Z,3.27
2022-12-09T20:59:12.219Z,16.57
2022-12-09T21:03:14.552Z,3.10
2022-12-09T21:07:28.399Z,6.17
2022-12-09T21:11:30.626Z,4.40
2022-12-09T21:15:42.104Z,6.03
2022-12-09T21:20:41.459Z,4.00
2022-12-09T21:24:47.376Z,6.63
2022-12-09T21:28:52.866Z,6.17
2022-12-09T21:32:55.709Z,7.47
2022-12-09T21:37:01.403Z,3.93
2022-12-09T21:41:05.056Z,4.03
2022-12-09T21:45:10.965Z,5.47
2022-12-09T21:49:13.886Z,4.53
2022-12-09T21:53:17.298Z,6.73
2022-12-09T21:57:19.376Z,6.27
2022-12-09T22:01:34.561Z,6.03
2022-12-09T22:05:40.948Z,5.63
2022-12-09T22:09:43.999Z,4.90
2022-12-09T22:14:11.922Z,9.70
2022-12-09T22:18:31.404Z,7.77
2022-12-09T22:22:45.717Z,5.93
2022-12-09T22:26:48.121Z,10.47
2022-12-09T22:30:50.200Z,8.73
2022-12-09T22:34:53.944Z,11.27
2022-12-09T22:38:56.138Z,12.67
2022-12-09T22:43:07.664Z,10.20
2022-12-09T22:47:10.032Z,8.53
2022-12-09T22:51:15.394Z,8.90
2022-12-09T22:55:19.529Z,10.33
2022-12-09T22:59:21.442Z,11.10
2022-12-09T23:03:23.762Z,11.33
2022-12-09T23:07:30.842Z,12.10
2022-12-09T23:11:35.599Z,14.33
2022-12-09T23:16:34.590Z,11.33
2022-12-09T23:21:10.705Z,14.97
2022-12-09T23:25:44.879Z,14.53
2022-12-09T23:30:13.363Z,16.47
2022-12-09T23:34:16.124Z,13.27
2022-12-09T23:38:22.992Z,19.07
2022-12-09T23:42:35.374Z,22.50
2022-12-09T23:46:38.090Z,18.00
2022-12-09T23:50:40.648Z,22.23
2022-12-09T23:54:45.966Z,22.13
2022-12-09T23:58:52.724Z,18.70
